Strona główna
METAR-TAF:

METAR-TAF

Lotnisko :

Port lotniczy Haugesund

Haugesund, Norwegia

Szerokość geograficzna: 59-21N, Długość geograficzna: 005-13E, wysokość: 2 m

Aktualna obserwacja pogody

Raport powstał 18 minut temu, godzina 05:20 UTC
Wiatr 14 kt od północny zachód
Temperatura 5°C
Wilgotność 65%
Ciśnienie 1023 hPa
Widzialność 10 km lub więcej
Mało chmury na wysokości 3000 ft

METAR: ENHD 090520Z 32014KT 9999 FEW030 05/M01 Q1023

czas: 07:38 (05:38 UTC)

Prognoza

Raport powstał 21 godziny i 38 minut temu, godzina 08:00 UTC
Prognoza ważna od 08 godzina 09 UTC do 08 godzina 13 UTC
Wiatr 12 kt od południowo-południowy zachód
Widzialność 10 km lub więcej
Przerywane chmury na wysokości 4000 ft
Prawdopodobieństwo 30%
od 08 godzina 12 UTC do 08 godzina 13 UTC
Przerywane chmury na wysokości 1400 ft
słaby deszcz

TAF: ENHD 080800Z 0809/0813 20012KT 9999 BKN040 PROB30 0812/0813 -RA BKN014

Obserwacja i prognoza pogody dla ponad 4000 lotnisk (raport METAR i TAF).

Dostępne stacje oznaczono żółtymi i czerwonymi punktami na mapie.

Najedź kursorem aby zobaczyć nazwę stacji.

Kliknij aby zobaczyć obserwacje i prognozy pogody.

Aby zmienić mapę: kliknij na zielony przycisk z czarnym krzyżykiem, aby powiększyć; na zielony przycisk z myślnikiem, aby pomniejszyć; na zielone strzałki, aby przejść do map sąsiednich.


METAR-TAF: